Time;durP1;ratioP1;P1;durP2;ratioP2;P2;SDS_P1;SDS_P2;PMS_P1;PMS_P2;Temp;Humidity;BMP_temperature;BMP_pressure;BME280_temperature;BME280_humidity;BME280_pressure;Samples;Min_cycle;Max_cycle;Signal;HPM_P1;HPM_P2
2023/08/06 00:01:54;;;;;;;5.65;3.97;;;;;;;;;;5048722;28;20049;-81
2023/08/06 00:04:21;;;;;;;8.23;4.57;;;;;;;;;;5064535;28;20059;-80
2023/08/06 00:06:48;;;;;;;8.77;4.57;;;;;;;;;;5062697;28;20514;-79
2023/08/06 00:09:14;;;;;;;6.22;4.05;;;;;;;;;;5059348;28;20053;-79
2023/08/06 00:11:43;;;;;;;9.07;4.07;;;;;;;;;;5069293;28;20037;-82
2023/08/06 00:14:10;;;;;;;10.27;4.78;;;;;;;;;;5073256;28;20067;-81
2023/08/06 00:16:37;;;;;;;7.45;4.13;;;;;;;;;;5072677;28;20041;-82
2023/08/06 00:19:03;;;;;;;6.97;4.00;;;;;;;;;;5074512;28;20029;-82
2023/08/06 00:21:30;;;;;;;7.70;3.78;;;;;;;;;;5066526;28;20052;-79
2023/08/06 00:23:56;;;;;;;8.00;4.30;;;;;;;;;;5043600;28;20037;-82
2023/08/06 00:26:23;;;;;;;8.30;4.38;;;;;;;;;;5065106;28;20115;-82
2023/08/06 00:28:49;;;;;;;6.70;3.97;;;;;;;;;;5049771;28;20041;-84
2023/08/06 00:31:16;;;;;;;7.43;4.00;;;;;;;;;;5063098;28;20038;-84
2023/08/06 00:33:43;;;;;;;10.80;4.00;;;;;;;;;;5067046;28;20064;-82
2023/08/06 00:36:09;;;;;;;7.97;4.00;;;;;;;;;;5044247;28;20057;-83
2023/08/06 00:38:36;;;;;;;6.20;4.22;;;;;;;;;;5066679;28;20076;-81
2023/08/06 00:41:03;;;;;;;7.60;4.38;;;;;;;;;;5046753;28;20048;-84
2023/08/06 00:43:30;;;;;;;12.85;3.92;;;;;;;;;;5043740;28;20053;-82
2023/08/06 00:45:57;;;;;;;7.43;4.40;;;;;;;;;;5049605;28;20053;-83
2023/08/06 00:48:23;;;;;;;6.65;4.28;;;;;;;;;;5026964;28;20056;-80
2023/08/06 00:50:50;;;;;;;6.47;4.25;;;;;;;;;;5027814;28;20045;-82
2023/08/06 00:53:17;;;;;;;7.97;4.65;;;;;;;;;;5046307;28;20038;-83
2023/08/06 00:55:44;;;;;;;6.75;4.75;;;;;;;;;;5009911;28;20046;-82
2023/08/06 00:58:11;;;;;;;10.73;4.97;;;;;;;;;;5043179;28;20049;-83
2023/08/06 01:00:39;;;;;;;6.80;4.65;;;;;;;;;;5044211;28;20402;-81
2023/08/06 01:03:06;;;;;;;6.85;4.50;;;;;;;;;;5035731;28;20038;-81
2023/08/06 01:05:32;;;;;;;7.07;4.47;;;;;;;;;;5019967;28;20058;-85
2023/08/06 01:08:08;;;;;;;7.93;5.22;;;;;;;;;;5025125;28;20048;-81
2023/08/06 01:10:38;;;;;;;7.93;4.80;;;;;;;;;;5037095;28;20052;-84
2023/08/06 01:13:04;;;;;;;7.57;4.50;;;;;;;;;;5008320;28;20052;-82
2023/08/06 01:15:35;;;;;;;10.50;4.50;;;;;;;;;;5045417;28;20041;-80
2023/08/06 01:18:02;;;;;;;7.20;4.60;;;;;;;;;;5041832;28;20037;-81
2023/08/06 01:20:29;;;;;;;5.90;4.10;;;;;;;;;;5044819;28;20442;-83
2023/08/06 01:22:57;;;;;;;6.53;4.28;;;;;;;;;;5025537;28;20095;-81
2023/08/06 01:25:30;;;;;;;9.15;4.15;;;;;;;;;;5038147;28;20053;-83
2023/08/06 01:28:01;;;;;;;6.47;4.05;;;;;;;;;;5052329;28;20052;-82
2023/08/06 01:30:30;;;;;;;10.13;4.32;;;;;;;;;;5042927;28;20231;-81
2023/08/06 01:32:58;;;;;;;7.13;4.03;;;;;;;;;;5012371;28;20066;-83
2023/08/06 01:35:28;;;;;;;7.13;4.10;;;;;;;;;;5045362;28;20049;-83
2023/08/06 01:37:57;;;;;;;7.15;4.10;;;;;;;;;;5032751;28;20105;-82
2023/08/06 01:40:25;;;;;;;6.82;4.35;;;;;;;;;;5039561;28;20614;-84
2023/08/06 01:42:52;;;;;;;6.78;3.90;;;;;;;;;;5024408;28;20446;-85
2023/08/06 01:45:19;;;;;;;7.60;4.22;;;;;;;;;;5024815;28;20049;-82
2023/08/06 01:47:45;;;;;;;6.85;3.97;;;;;;;;;;5021639;28;20072;-85
2023/08/06 01:50:12;;;;;;;7.05;4.10;;;;;;;;;;5034758;28;20045;-83
2023/08/06 01:52:38;;;;;;;6.25;3.78;;;;;;;;;;5012010;28;20109;-81
2023/08/06 01:55:05;;;;;;;4.80;3.80;;;;;;;;;;5011714;28;20050;-81
2023/08/06 01:57:32;;;;;;;4.70;3.40;;;;;;;;;;5010415;28;20059;-84
2023/08/06 01:59:59;;;;;;;5.32;3.90;;;;;;;;;;5030597;28;20048;-79
2023/08/06 02:02:26;;;;;;;7.53;3.92;;;;;;;;;;5012831;28;20106;-81
2023/08/06 02:04:53;;;;;;;5.38;3.53;;;;;;;;;;5037882;28;20050;-82
2023/08/06 02:07:19;;;;;;;5.65;3.83;;;;;;;;;;5002383;28;20038;-81
2023/08/06 02:09:46;;;;;;;6.97;3.45;;;;;;;;;;5038385;28;20072;-81
2023/08/06 02:12:13;;;;;;;6.10;3.80;;;;;;;;;;5031332;28;20060;-82
2023/08/06 02:14:39;;;;;;;5.00;3.20;;;;;;;;;;5037530;28;20105;-85
2023/08/06 02:17:06;;;;;;;6.43;4.00;;;;;;;;;;5059949;28;20041;-82
2023/08/06 02:19:33;;;;;;;8.07;3.70;;;;;;;;;;5052988;28;20108;-81
2023/08/06 02:21:59;;;;;;;5.47;3.75;;;;;;;;;;5040491;28;20563;-82
2023/08/06 02:24:26;;;;;;;8.07;4.10;;;;;;;;;;5018527;28;20053;-82
2023/08/06 02:26:55;;;;;;;5.63;3.85;;;;;;;;;;5061383;28;20033;-82
2023/08/06 02:29:22;;;;;;;5.88;3.95;;;;;;;;;;5057556;28;20041;-83
2023/08/06 02:31:48;;;;;;;5.00;3.72;;;;;;;;;;5058208;28;20045;-81
2023/08/06 02:34:16;;;;;;;7.60;3.63;;;;;;;;;;5022648;28;20049;-82
2023/08/06 02:36:44;;;;;;;8.35;4.03;;;;;;;;;;5020495;28;20107;-81
2023/08/06 02:39:10;;;;;;;9.32;3.88;;;;;;;;;;5042106;28;20045;-84
2023/08/06 02:41:37;;;;;;;5.32;3.85;;;;;;;;;;5032828;28;20048;-82
2023/08/06 02:44:04;;;;;;;6.22;3.75;;;;;;;;;;5055643;28;20517;-80
2023/08/06 02:46:30;;;;;;;6.97;3.90;;;;;;;;;;5055656;28;20057;-82
2023/08/06 02:48:57;;;;;;;5.80;3.30;;;;;;;;;;5033154;28;20542;-81
2023/08/06 02:51:23;;;;;;;5.32;3.67;;;;;;;;;;5031534;28;20045;-84
2023/08/06 02:53:50;;;;;;;8.85;3.88;;;;;;;;;;5042515;28;20069;-82
2023/08/06 02:56:18;;;;;;;5.00;3.10;;;;;;;;;;5043231;28;20063;-83
2023/08/06 02:59:11;;;;;;;6.28;3.70;;;;;;;;;;5040129;28;20104;-82
2023/08/06 03:01:47;;;;;;;6.13;3.55;;;;;;;;;;5053808;28;20119;-83
2023/08/06 03:04:21;;;;;;;8.48;3.80;;;;;;;;;;5023826;28;20056;-82
2023/08/06 03:06:49;;;;;;;4.47;3.00;;;;;;;;;;5026190;28;20045;-84
2023/08/06 03:09:16;;;;;;;9.95;3.45;;;;;;;;;;5008085;28;20042;-83
2023/08/06 03:11:43;;;;;;;7.65;3.03;;;;;;;;;;5024063;28;20064;-80
2023/08/06 03:14:13;;;;;;;5.65;2.90;;;;;;;;;;5037539;28;20064;-84
2023/08/06 03:16:40;;;;;;;4.93;2.75;;;;;;;;;;5031192;28;20041;-84
2023/08/06 03:19:07;;;;;;;4.85;2.90;;;;;;;;;;5005959;28;20038;-83
2023/08/06 03:21:34;;;;;;;4.47;2.97;;;;;;;;;;5028435;28;20056;-83
2023/08/06 03:24:02;;;;;;;3.85;2.60;;;;;;;;;;5044991;28;20052;-84
2023/08/06 03:26:31;;;;;;;6.90;2.78;;;;;;;;;;5038587;28;20045;-82
2023/08/06 03:28:58;;;;;;;3.80;2.60;;;;;;;;;;5044326;28;20037;-82
2023/08/06 03:31:25;;;;;;;4.18;2.67;;;;;;;;;;5027350;28;20044;-81
2023/08/06 03:33:52;;;;;;;4.90;2.65;;;;;;;;;;5030278;28;20045;-81
2023/08/06 03:36:24;;;;;;;6.68;3.13;;;;;;;;;;5033199;28;20105;-79
2023/08/06 03:38:51;;;;;;;4.15;2.65;;;;;;;;;;5037137;28;20152;-83
2023/08/06 03:41:18;;;;;;;6.00;2.58;;;;;;;;;;5011094;28;20381;-81
2023/08/06 03:43:44;;;;;;;4.43;2.60;;;;;;;;;;5043754;28;20049;-81
2023/08/06 03:46:18;;;;;;;4.38;2.55;;;;;;;;;;5046418;28;20041;-82
2023/08/06 03:48:44;;;;;;;5.10;2.70;;;;;;;;;;5050096;28;20040;-82
2023/08/06 03:51:12;;;;;;;3.53;2.40;;;;;;;;;;5068294;28;20093;-83
2023/08/06 03:53:39;;;;;;;7.68;2.65;;;;;;;;;;5049575;28;20051;-85
2023/08/06 03:56:06;;;;;;;5.60;2.70;;;;;;;;;;5028251;28;20097;-86
2023/08/06 03:58:33;;;;;;;3.72;2.00;;;;;;;;;;5052567;28;21013;-83
2023/08/06 04:01:01;;;;;;;4.40;2.10;;;;;;;;;;5068066;28;20068;-84
2023/08/06 04:03:34;;;;;;;2.60;2.17;;;;;;;;;;5050762;28;21124;-83
2023/08/06 04:06:04;;;;;;;3.63;2.38;;;;;;;;;;5052040;28;20116;-83
2023/08/06 04:08:31;;;;;;;3.97;1.95;;;;;;;;;;5051860;28;20048;-81
2023/08/06 04:10:58;;;;;;;3.72;1.98;;;;;;;;;;5060649;28;20052;-81
2023/08/06 04:13:25;;;;;;;2.85;1.98;;;;;;;;;;5064158;28;20063;-80
2023/08/06 04:15:51;;;;;;;5.50;2.15;;;;;;;;;;5025098;28;20103;-81
2023/08/06 04:18:18;;;;;;;3.72;2.10;;;;;;;;;;5043526;28;20037;-85
2023/08/06 04:20:49;;;;;;;3.10;2.05;;;;;;;;;;5040484;28;20131;-83
2023/08/06 04:23:16;;;;;;;3.63;2.20;;;;;;;;;;5041156;28;20101;-83
2023/08/06 04:25:42;;;;;;;2.95;1.77;;;;;;;;;;5058752;28;20097;-85
2023/08/06 04:28:09;;;;;;;2.33;1.73;;;;;;;;;;5062511;28;20049;-83
2023/08/06 04:30:36;;;;;;;2.55;1.65;;;;;;;;;;5065139;28;20470;-82
2023/08/06 04:33:03;;;;;;;2.80;1.75;;;;;;;;;;5060080;28;20042;-82
2023/08/06 04:35:32;;;;;;;2.70;1.63;;;;;;;;;;5043837;28;20044;-82
2023/08/06 04:37:58;;;;;;;2.67;1.50;;;;;;;;;;5064086;28;20140;-81
2023/08/06 04:40:25;;;;;;;2.30;1.38;;;;;;;;;;5041919;28;20042;-84
2023/08/06 04:42:51;;;;;;;2.15;1.48;;;;;;;;;;5044333;28;20064;-86
2023/08/06 04:45:19;;;;;;;2.33;1.40;;;;;;;;;;5047657;28;20041;-82
2023/08/06 04:47:45;;;;;;;2.17;1.40;;;;;;;;;;5047265;28;20067;-84
2023/08/06 04:50:12;;;;;;;2.42;1.65;;;;;;;;;;5065070;28;20048;-84
2023/08/06 04:52:38;;;;;;;5.10;1.88;;;;;;;;;;5065114;28;20041;-84
2023/08/06 04:55:06;;;;;;;3.35;1.70;;;;;;;;;;5064254;28;20052;-83
2023/08/06 04:57:33;;;;;;;3.33;1.90;;;;;;;;;;5057825;28;20071;-81
2023/08/06 04:59:59;;;;;;;4.53;1.85;;;;;;;;;;5060130;28;20049;-83
2023/08/06 05:02:26;;;;;;;4.93;1.92;;;;;;;;;;5041739;28;20053;-82
2023/08/06 05:04:53;;;;;;;2.15;1.58;;;;;;;;;;5060337;28;20098;-80
2023/08/06 05:07:19;;;;;;;2.90;1.85;;;;;;;;;;5056822;28;20071;-82
2023/08/06 05:09:46;;;;;;;1.83;1.48;;;;;;;;;;5034284;28;20056;-83
2023/08/06 05:12:12;;;;;;;3.95;2.05;;;;;;;;;;5052074;28;20067;-82
2023/08/06 05:14:39;;;;;;;2.15;1.70;;;;;;;;;;5031978;28;20048;-82
2023/08/06 05:17:05;;;;;;;4.28;1.80;;;;;;;;;;5037548;28;20049;-82
2023/08/06 05:19:32;;;;;;;2.88;1.75;;;;;;;;;;5059729;28;20087;-84
2023/08/06 05:21:58;;;;;;;3.75;1.83;;;;;;;;;;5046365;28;20048;-84
2023/08/06 05:24:25;;;;;;;2.60;1.75;;;;;;;;;;5057883;28;20112;-80
2023/08/06 05:26:52;;;;;;;5.35;1.75;;;;;;;;;;5058352;28;20134;-80
2023/08/06 05:29:18;;;;;;;3.25;1.90;;;;;;;;;;5059063;28;20149;-81
2023/08/06 05:31:45;;;;;;;2.33;1.83;;;;;;;;;;5048885;28;20072;-85
2023/08/06 05:34:11;;;;;;;3.40;1.77;;;;;;;;;;5061475;28;20063;-81
2023/08/06 05:36:41;;;;;;;3.38;1.85;;;;;;;;;;5059153;28;20052;-83
2023/08/06 05:39:07;;;;;;;3.47;2.05;;;;;;;;;;5050278;28;20447;-84
2023/08/06 05:41:34;;;;;;;4.07;2.00;;;;;;;;;;5053470;28;20131;-78
2023/08/06 05:44:01;;;;;;;4.22;1.80;;;;;;;;;;5051530;28;20355;-81
2023/08/06 05:46:31;;;;;;;2.80;1.90;;;;;;;;;;5056434;28;20059;-81
2023/08/06 05:48:57;;;;;;;2.90;1.67;;;;;;;;;;5042063;28;20048;-83
2023/08/06 05:51:25;;;;;;;4.07;1.73;;;;;;;;;;5060981;28;20468;-83
2023/08/06 05:53:52;;;;;;;7.00;1.80;;;;;;;;;;5060902;28;20067;-82
2023/08/06 05:56:20;;;;;;;2.33;1.80;;;;;;;;;;5054749;28;20073;-81
2023/08/06 05:58:47;;;;;;;5.35;2.00;;;;;;;;;;5052441;28;20075;-84
2023/08/06 06:01:17;;;;;;;3.60;1.80;;;;;;;;;;5026161;28;20059;-83
2023/08/06 06:03:43;;;;;;;3.15;1.80;;;;;;;;;;5042148;28;20045;-80
2023/08/06 06:06:10;;;;;;;3.50;1.95;;;;;;;;;;5044813;28;20518;-83
2023/08/06 06:08:37;;;;;;;4.82;1.80;;;;;;;;;;5050161;28;20041;-79
2023/08/06 06:11:03;;;;;;;7.18;2.10;;;;;;;;;;5048629;28;20056;-79
2023/08/06 06:13:30;;;;;;;2.25;1.77;;;;;;;;;;5049393;28;20055;-80
2023/08/06 06:15:56;;;;;;;7.53;1.90;;;;;;;;;;5044992;28;20053;-83
2023/08/06 06:18:23;;;;;;;2.55;1.83;;;;;;;;;;5030641;28;20050;-83
2023/08/06 06:20:49;;;;;;;4.80;1.90;;;;;;;;;;5050834;28;20060;-82
2023/08/06 06:23:16;;;;;;;6.10;2.47;;;;;;;;;;5030564;28;20096;-84
2023/08/06 06:25:43;;;;;;;3.95;2.30;;;;;;;;;;5053221;28;20041;-84
2023/08/06 06:28:10;;;;;;;5.32;2.60;;;;;;;;;;5058903;28;20052;-84
2023/08/06 06:30:36;;;;;;;7.50;2.15;;;;;;;;;;5060063;28;20044;-82
2023/08/06 06:33:03;;;;;;;3.47;2.47;;;;;;;;;;5050480;28;20045;-83
2023/08/06 06:35:29;;;;;;;4.97;2.45;;;;;;;;;;5057057;28;20771;-83
2023/08/06 06:37:56;;;;;;;5.03;2.08;;;;;;;;;;5059781;28;20075;-83
2023/08/06 06:40:23;;;;;;;2.75;1.90;;;;;;;;;;5058600;28;20422;-81
2023/08/06 06:42:49;;;;;;;3.00;1.90;;;;;;;;;;5042587;28;20461;-82
2023/08/06 06:45:16;;;;;;;4.22;2.08;;;;;;;;;;5064616;28;20113;-84
2023/08/06 06:47:43;;;;;;;3.03;1.80;;;;;;;;;;5066064;28;20037;-88
2023/08/06 06:50:09;;;;;;;4.53;1.92;;;;;;;;;;5067894;28;20111;-86
2023/08/06 06:52:42;;;;;;;2.35;1.70;;;;;;;;;;5053077;28;20216;-85
2023/08/06 06:55:08;;;;;;;2.53;1.80;;;;;;;;;;5066858;28;20057;-83
2023/08/06 06:57:35;;;;;;;2.60;2.03;;;;;;;;;;5062639;28;20051;-84
2023/08/06 07:00:02;;;;;;;3.53;2.33;;;;;;;;;;5063249;28;20060;-84
2023/08/06 07:02:32;;;;;;;3.30;2.15;;;;;;;;;;5046679;28;20053;-85
2023/08/06 07:04:59;;;;;;;3.85;2.03;;;;;;;;;;5064767;28;20509;-85
2023/08/06 07:07:25;;;;;;;4.97;2.00;;;;;;;;;;5039912;28;20055;-84
2023/08/06 07:09:52;;;;;;;5.47;2.25;;;;;;;;;;5044790;28;20064;-82
2023/08/06 07:12:18;;;;;;;4.05;2.20;;;;;;;;;;5042290;28;20051;-82
2023/08/06 07:14:45;;;;;;;4.38;2.17;;;;;;;;;;5063910;28;20049;-84
2023/08/06 07:17:11;;;;;;;4.28;2.22;;;;;;;;;;5041532;28;20069;-84
2023/08/06 07:19:38;;;;;;;4.47;2.35;;;;;;;;;;5029828;28;20052;-83
2023/08/06 07:22:05;;;;;;;3.45;2.30;;;;;;;;;;5050206;28;20071;-85
2023/08/06 07:24:32;;;;;;;9.80;2.70;;;;;;;;;;5060560;28;20045;-84
2023/08/06 07:26:58;;;;;;;4.40;2.58;;;;;;;;;;5058376;28;20143;-84
2023/08/06 07:29:25;;;;;;;7.68;2.67;;;;;;;;;;5059690;28;20068;-85
2023/08/06 07:31:51;;;;;;;5.57;2.42;;;;;;;;;;5043692;28;20057;-86
2023/08/06 07:34:18;;;;;;;6.75;2.72;;;;;;;;;;5062893;28;20093;-85
2023/08/06 07:36:46;;;;;;;3.97;2.45;;;;;;;;;;5059756;28;20053;-82
2023/08/06 07:39:12;;;;;;;4.88;2.58;;;;;;;;;;5060973;28;20052;-86
2023/08/06 07:41:39;;;;;;;2.97;2.17;;;;;;;;;;5059692;28;20051;-85
2023/08/06 07:44:05;;;;;;;3.33;2.35;;;;;;;;;;5060125;28;20059;-84
2023/08/06 07:46:32;;;;;;;3.47;2.50;;;;;;;;;;5041172;28;20059;-82
2023/08/06 07:48:59;;;;;;;5.25;3.15;;;;;;;;;;5053476;28;20053;-81
2023/08/06 07:51:25;;;;;;;5.40;3.03;;;;;;;;;;5057167;28;20589;-84
2023/08/06 07:53:52;;;;;;;7.68;2.85;;;;;;;;;;5041729;28;20055;-82
2023/08/06 07:56:18;;;;;;;4.75;3.10;;;;;;;;;;5061590;28;20507;-84
2023/08/06 07:58:45;;;;;;;4.80;2.97;;;;;;;;;;5058276;28;20140;-83
2023/08/06 08:01:15;;;;;;;4.82;3.35;;;;;;;;;;5047209;28;20075;-83
2023/08/06 08:03:41;;;;;;;5.57;3.10;;;;;;;;;;5064017;28;20128;-82
2023/08/06 08:06:08;;;;;;;6.25;3.00;;;;;;;;;;5058980;28;20060;-81
2023/08/06 08:08:38;;;;;;;7.93;3.22;;;;;;;;;;5037724;28;20033;-82
2023/08/06 08:11:05;;;;;;;7.25;3.05;;;;;;;;;;5038248;28;20050;-84
2023/08/06 08:13:31;;;;;;;6.60;3.10;;;;;;;;;;5033462;28;20045;-82
2023/08/06 08:15:59;;;;;;;4.97;3.00;;;;;;;;;;5057267;28;20544;-83
2023/08/06 08:18:25;;;;;;;4.72;3.30;;;;;;;;;;5060277;28;20125;-84
2023/08/06 08:20:52;;;;;;;6.82;3.15;;;;;;;;;;5022041;28;20049;-83
2023/08/06 08:23:18;;;;;;;5.05;3.17;;;;;;;;;;5033717;28;20046;-82
2023/08/06 08:25:45;;;;;;;6.50;3.47;;;;;;;;;;5041520;28;20061;-84
2023/08/06 08:28:12;;;;;;;4.35;2.90;;;;;;;;;;5030008;28;20049;-86
2023/08/06 08:30:40;;;;;;;4.78;2.58;;;;;;;;;;5016520;28;20050;-82
2023/08/06 08:33:07;;;;;;;4.28;2.90;;;;;;;;;;5028754;28;20113;-86
2023/08/06 08:35:34;;;;;;;3.72;2.80;;;;;;;;;;5050961;28;20053;-78
2023/08/06 08:38:01;;;;;;;4.10;2.72;;;;;;;;;;5030235;28;20123;-81
2023/08/06 08:40:31;;;;;;;3.47;2.53;;;;;;;;;;5050709;28;20076;-80
2023/08/06 08:42:59;;;;;;;3.63;2.88;;;;;;;;;;5048826;28;20048;-84
2023/08/06 08:45:28;;;;;;;2.38;2.03;;;;;;;;;;5030899;28;20057;-84
2023/08/06 08:47:55;;;;;;;3.25;2.03;;;;;;;;;;5029158;28;20083;-82
2023/08/06 08:50:21;;;;;;;6.93;2.17;;;;;;;;;;5052868;28;20049;-83
2023/08/06 08:52:50;;;;;;;3.28;2.30;;;;;;;;;;5049286;28;20136;-85
2023/08/06 08:55:17;;;;;;;4.43;2.45;;;;;;;;;;5030867;28;20049;-84
2023/08/06 08:57:43;;;;;;;3.50;2.50;;;;;;;;;;5050112;28;20099;-80
2023/08/06 09:00:11;;;;;;;4.63;2.45;;;;;;;;;;5014511;28;20053;-81
2023/08/06 09:02:37;;;;;;;3.50;2.40;;;;;;;;;;5051225;28;20053;-83
2023/08/06 09:06:11;;;;;;;;;;;;;;;;;;5032345;28;107457;-81
2023/08/06 09:08:40;;;;;;;4.22;1.95;;;;;;;;;;4975649;28;19932;-79
2023/08/06 09:11:09;;;;;;;2.58;1.90;;;;;;;;;;5020822;28;20053;-80
2023/08/06 09:13:37;;;;;;;5.95;2.13;;;;;;;;;;5006043;28;20047;-80
2023/08/06 09:16:04;;;;;;;3.65;2.10;;;;;;;;;;5020923;28;20050;-80
2023/08/06 09:18:31;;;;;;;2.72;1.80;;;;;;;;;;5008568;28;20061;-78
2023/08/06 09:20:58;;;;;;;6.60;2.40;;;;;;;;;;4971076;28;20074;-79
2023/08/06 09:23:33;;;;;;;3.88;1.98;;;;;;;;;;4972807;28;20080;-79
2023/08/06 09:25:59;;;;;;;4.47;1.70;;;;;;;;;;4968202;28;20053;-78
2023/08/06 09:28:44;;;;;;;3.35;2.10;;;;;;;;;;4968847;28;20130;-79
2023/08/06 09:31:11;;;;;;;3.47;2.00;;;;;;;;;;4960494;28;20133;-78
2023/08/06 09:33:38;;;;;;;5.53;2.15;;;;;;;;;;4967298;28;20532;-79
2023/08/06 09:36:09;;;;;;;3.28;2.03;;;;;;;;;;4965410;28;20683;-79
2023/08/06 09:38:40;;;;;;;4.20;1.90;;;;;;;;;;5002724;28;20039;-78
2023/08/06 09:41:07;;;;;;;5.85;2.53;;;;;;;;;;4965100;28;20102;-78
2023/08/06 09:43:41;;;;;;;4.82;1.92;;;;;;;;;;4965165;28;20422;-81
2023/08/06 09:46:16;;;;;;;2.35;1.75;;;;;;;;;;4998586;28;20047;-79
2023/08/06 09:48:46;;;;;;;3.38;1.98;;;;;;;;;;4985645;28;20062;-78
2023/08/06 09:51:13;;;;;;;4.30;1.90;;;;;;;;;;4979683;28;20066;-81
2023/08/06 09:53:40;;;;;;;3.08;1.90;;;;;;;;;;4955159;28;20051;-81
2023/08/06 09:56:08;;;;;;;2.65;1.85;;;;;;;;;;5001108;28;20051;-81
2023/08/06 09:58:34;;;;;;;2.90;1.73;;;;;;;;;;4968291;28;20114;-79
2023/08/06 10:01:02;;;;;;;4.20;2.00;;;;;;;;;;4968690;28;20082;-79
2023/08/06 10:03:29;;;;;;;5.15;1.88;;;;;;;;;;4970183;28;20047;-80
2023/08/06 10:05:56;;;;;;;3.42;1.80;;;;;;;;;;4973726;28;20046;-78
2023/08/06 10:08:23;;;;;;;3.33;1.90;;;;;;;;;;4966944;28;20295;-81
2023/08/06 10:10:50;;;;;;;3.60;1.77;;;;;;;;;;4969374;28;20573;-81
2023/08/06 10:13:22;;;;;;;4.65;1.98;;;;;;;;;;4967322;28;20052;-79
2023/08/06 10:15:49;;;;;;;2.88;1.90;;;;;;;;;;4944304;28;20055;-79
2023/08/06 10:18:20;;;;;;;4.13;1.88;;;;;;;;;;4937865;28;20063;-80
2023/08/06 10:20:47;;;;;;;3.55;1.85;;;;;;;;;;4956209;28;20047;-81
2023/08/06 10:23:15;;;;;;;4.07;1.83;;;;;;;;;;4986614;28;20042;-80
2023/08/06 10:25:42;;;;;;;2.55;1.70;;;;;;;;;;4960843;28;20104;-80
2023/08/06 10:28:10;;;;;;;3.10;1.63;;;;;;;;;;4962630;28;20050;-81
2023/08/06 10:30:44;;;;;;;1.63;1.38;;;;;;;;;;4952610;28;20062;-81
2023/08/06 10:33:11;;;;;;;3.72;1.60;;;;;;;;;;4962053;28;20047;-78
2023/08/06 10:35:40;;;;;;;4.45;1.60;;;;;;;;;;4962178;28;20040;-79
2023/08/06 10:38:07;;;;;;;3.25;1.70;;;;;;;;;;4968890;28;20442;-78
2023/08/06 10:40:34;;;;;;;2.95;1.58;;;;;;;;;;4957846;28;20059;-78
2023/08/06 10:43:04;;;;;;;2.42;1.67;;;;;;;;;;4947737;28;20083;-79
2023/08/06 10:45:34;;;;;;;2.38;1.58;;;;;;;;;;4954666;28;20173;-81
2023/08/06 10:48:00;;;;;;;3.28;1.60;;;;;;;;;;4970139;28;20051;-78
2023/08/06 10:50:27;;;;;;;2.45;1.60;;;;;;;;;;4968943;28;20074;-80
2023/08/06 10:52:54;;;;;;;2.03;1.55;;;;;;;;;;4979195;28;20509;-79
2023/08/06 10:55:27;;;;;;;1.92;1.48;;;;;;;;;;4962554;28;20042;-78
2023/08/06 10:57:55;;;;;;;2.75;1.73;;;;;;;;;;4974812;28;20097;-78
2023/08/06 11:00:24;;;;;;;2.72;1.42;;;;;;;;;;5007286;28;20116;-79
2023/08/06 11:02:52;;;;;;;16.13;1.70;;;;;;;;;;4984696;28;20058;-78
2023/08/06 11:05:19;;;;;;;3.33;1.73;;;;;;;;;;4984251;28;20057;-78
2023/08/06 11:07:47;;;;;;;3.20;1.90;;;;;;;;;;4981910;28;20077;-79
2023/08/06 11:10:14;;;;;;;2.50;1.83;;;;;;;;;;4978881;28;20142;-78
2023/08/06 11:12:41;;;;;;;2.33;1.60;;;;;;;;;;4990733;28;20118;-79
2023/08/06 11:15:08;;;;;;;2.10;1.52;;;;;;;;;;4975254;28;20108;-79
2023/08/06 11:17:35;;;;;;;3.33;1.60;;;;;;;;;;4972638;28;20058;-79
2023/08/06 11:20:03;;;;;;;2.65;1.77;;;;;;;;;;4970006;28;20441;-78
2023/08/06 11:22:30;;;;;;;3.58;1.50;;;;;;;;;;4972257;28;20058;-79
2023/08/06 11:24:58;;;;;;;2.03;1.42;;;;;;;;;;4976680;28;20093;-78
2023/08/06 11:27:26;;;;;;;3.00;1.60;;;;;;;;;;4975451;28;20058;-79
2023/08/06 11:29:52;;;;;;;2.67;1.90;;;;;;;;;;4979818;28;20105;-78
2023/08/06 11:32:19;;;;;;;3.08;1.65;;;;;;;;;;4974531;28;20058;-78
2023/08/06 11:34:46;;;;;;;2.92;1.50;;;;;;;;;;4986249;28;20039;-78
2023/08/06 11:37:12;;;;;;;2.70;1.52;;;;;;;;;;4977835;28;20054;-78
2023/08/06 11:39:44;;;;;;;8.80;1.42;;;;;;;;;;4979028;28;20046;-79
2023/08/06 11:42:11;;;;;;;6.20;1.75;;;;;;;;;;4984343;28;20046;-79
2023/08/06 11:44:44;;;;;;;2.40;1.20;;;;;;;;;;4982967;28;20058;-79
2023/08/06 11:47:12;;;;;;;2.40;1.50;;;;;;;;;;4983906;28;20587;-78
2023/08/06 11:49:48;;;;;;;3.13;1.70;;;;;;;;;;4978967;28;20129;-78
2023/08/06 11:52:15;;;;;;;;;;;;;;;;;;4990276;28;21313;-78
2023/08/06 11:54:42;;;;;;;1.75;1.30;;;;;;;;;;5001077;28;19926;-80
2023/08/06 11:57:09;;;;;;;2.47;1.50;;;;;;;;;;4999702;28;20043;-80
2023/08/06 11:59:37;;;;;;;3.22;1.50;;;;;;;;;;4976351;28;20140;-81
2023/08/06 12:02:05;;;;;;;2.38;1.50;;;;;;;;;;4968242;28;20342;-81
2023/08/06 12:04:50;;;;;;;1.83;1.13;;;;;;;;;;4967760;28;21015;-80
2023/08/06 12:07:17;;;;;;;3.07;1.40;;;;;;;;;;4973706;28;20775;-80
2023/08/06 12:09:44;;;;;;;3.75;1.50;;;;;;;;;;4977797;28;20294;-80
2023/08/06 12:12:10;;;;;;;2.00;1.30;;;;;;;;;;4975368;28;20121;-81
2023/08/06 12:14:37;;;;;;;2.75;1.50;;;;;;;;;;4960396;28;20897;-80
2023/08/06 12:17:04;;;;;;;2.22;1.20;;;;;;;;;;4971387;28;20143;-81
2023/08/06 12:19:31;;;;;;;2.78;1.52;;;;;;;;;;4976687;28;20055;-78
2023/08/06 12:21:58;;;;;;;3.00;1.30;;;;;;;;;;4972002;28;20053;-82
2023/08/06 12:24:24;;;;;;;2.22;1.00;;;;;;;;;;4976615;28;20042;-78
2023/08/06 12:26:51;;;;;;;2.08;1.10;;;;;;;;;;4987934;28;20183;-79
2023/08/06 12:29:17;;;;;;;2.22;1.08;;;;;;;;;;4981376;28;20042;-81
2023/08/06 12:31:44;;;;;;;2.13;1.13;;;;;;;;;;4959853;28;20092;-82
2023/08/06 12:34:11;;;;;;;1.83;1.20;;;;;;;;;;4968402;28;20046;-81
2023/08/06 12:36:37;;;;;;;2.15;1.10;;;;;;;;;;4970599;28;20462;-77
2023/08/06 12:39:04;;;;;;;2.55;1.00;;;;;;;;;;4959876;28;20047;-76
2023/08/06 12:41:31;;;;;;;2.45;1.10;;;;;;;;;;4964372;28;20043;-79
2023/08/06 12:43:57;;;;;;;1.33;0.93;;;;;;;;;;4973970;28;20053;-79
2023/08/06 12:46:24;;;;;;;2.22;1.02;;;;;;;;;;4973376;28;20046;-76
2023/08/06 12:48:51;;;;;;;1.25;1.05;;;;;;;;;;4973705;28;20050;-78
2023/08/06 12:51:17;;;;;;;1.77;1.00;;;;;;;;;;4964421;28;20130;-77
2023/08/06 12:53:44;;;;;;;1.20;0.80;;;;;;;;;;4970284;28;20098;-76
2023/08/06 12:56:11;;;;;;;1.80;1.00;;;;;;;;;;4968652;28;20046;-77
2023/08/06 12:58:39;;;;;;;1.48;1.05;;;;;;;;;;4966256;28;20050;-78
2023/08/06 13:01:06;;;;;;;3.40;1.23;;;;;;;;;;4965131;28;20118;-76
2023/08/06 13:03:32;;;;;;;3.22;1.10;;;;;;;;;;4996032;28;20121;-77
2023/08/06 13:05:59;;;;;;;2.42;1.20;;;;;;;;;;4951958;28;20047;-79
2023/08/06 13:08:26;;;;;;;1.58;1.00;;;;;;;;;;4964839;28;20460;-77
2023/08/06 13:10:52;;;;;;;2.08;1.23;;;;;;;;;;4975281;28;20153;-78
2023/08/06 13:13:19;;;;;;;2.05;1.02;;;;;;;;;;4967205;28;20054;-77
2023/08/06 13:15:46;;;;;;;2.67;1.23;;;;;;;;;;4957398;28;20058;-77
2023/08/06 13:18:12;;;;;;;2.40;1.05;;;;;;;;;;4951606;28;20510;-76
2023/08/06 13:20:42;;;;;;;1.95;1.08;;;;;;;;;;4954095;28;20102;-78
2023/08/06 13:23:09;;;;;;;1.75;1.02;;;;;;;;;;4952219;28;20096;-77
2023/08/06 13:25:37;;;;;;;2.08;1.00;;;;;;;;;;4952217;28;20050;-76
2023/08/06 13:28:03;;;;;;;1.83;1.00;;;;;;;;;;4973005;28;20441;-78
2023/08/06 13:30:30;;;;;;;3.33;1.00;;;;;;;;;;4954033;28;20448;-79
2023/08/06 13:32:58;;;;;;;3.58;1.20;;;;;;;;;;4953949;28;21684;-77
2023/08/06 13:35:24;;;;;;;4.53;1.30;;;;;;;;;;4934196;28;20043;-77
2023/08/06 13:37:51;;;;;;;5.53;1.40;;;;;;;;;;4961984;28;20047;-77
2023/08/06 13:40:18;;;;;;;1.67;1.00;;;;;;;;;;4953834;28;20061;-79
2023/08/06 13:42:44;;;;;;;2.00;1.05;;;;;;;;;;4951037;28;20051;-78
2023/08/06 13:45:11;;;;;;;2.95;1.10;;;;;;;;;;4956643;28;20170;-78
2023/08/06 13:47:38;;;;;;;2.30;0.95;;;;;;;;;;4948882;28;20559;-77
2023/08/06 13:50:05;;;;;;;1.58;0.88;;;;;;;;;;4980089;28;20047;-78
2023/08/06 13:52:32;;;;;;;1.58;1.00;;;;;;;;;;4979288;28;20721;-77
2023/08/06 13:54:58;;;;;;;1.73;0.90;;;;;;;;;;4959082;28;20051;-77
2023/08/06 13:57:28;;;;;;;1.73;0.93;;;;;;;;;;4953909;28;20042;-78
2023/08/06 13:59:55;;;;;;;1.08;0.82;;;;;;;;;;4949177;28;20133;-77
2023/08/06 14:02:22;;;;;;;2.67;1.20;;;;;;;;;;4955927;28;20055;-78
2023/08/06 14:04:49;;;;;;;2.08;1.17;;;;;;;;;;4972555;28;21804;-79
2023/08/06 14:07:15;;;;;;;2.42;1.40;;;;;;;;;;4960460;28;20042;-78
2023/08/06 14:09:44;;;;;;;2.30;1.40;;;;;;;;;;4946423;28;20052;-78
2023/08/06 14:12:10;;;;;;;3.67;1.30;;;;;;;;;;4941593;28;20560;-78
2023/08/06 14:14:37;;;;;;;2.20;1.20;;;;;;;;;;4938854;28;20051;-77
2023/08/06 14:17:04;;;;;;;2.88;1.45;;;;;;;;;;4951531;28;20050;-76
2023/08/06 14:19:31;;;;;;;2.80;1.38;;;;;;;;;;4953401;28;20154;-76
2023/08/06 14:21:58;;;;;;;3.53;1.85;;;;;;;;;;4957325;28;20055;-78
2023/08/06 14:24:24;;;;;;;2.22;1.30;;;;;;;;;;4952914;28;20043;-80
2023/08/06 14:26:51;;;;;;;4.47;2.00;;;;;;;;;;4958104;28;20058;-78
2023/08/06 14:29:19;;;;;;;3.47;1.50;;;;;;;;;;4958025;28;20071;-78
2023/08/06 14:31:45;;;;;;;4.15;1.80;;;;;;;;;;4964070;28;20055;-78
2023/08/06 14:34:12;;;;;;;3.92;2.10;;;;;;;;;;4964455;28;20047;-76
2023/08/06 14:36:38;;;;;;;3.72;2.10;;;;;;;;;;4958629;28;20058;-77
2023/08/06 14:39:05;;;;;;;3.33;2.25;;;;;;;;;;4963188;28;20050;-78
2023/08/06 14:41:32;;;;;;;2.60;1.65;;;;;;;;;;4967630;28;20055;-79
2023/08/06 14:43:58;;;;;;;4.53;1.52;;;;;;;;;;4961721;28;20086;-77
2023/08/06 14:46:25;;;;;;;5.78;1.67;;;;;;;;;;4963583;28;20047;-78